createdAt,value
2022-09-26T00:00:33.706Z,13.50
2022-09-26T00:05:37.050Z,13.34
2022-09-26T00:10:38.691Z,13.26
2022-09-26T00:15:40.346Z,13.29
2022-09-26T00:20:41.988Z,13.29
2022-09-26T00:25:50.939Z,13.36
2022-09-26T00:30:53.077Z,13.41
2022-09-26T00:35:55.811Z,13.41
2022-09-26T00:40:57.964Z,13.31
2022-09-26T00:46:05.094Z,13.28
2022-09-26T00:51:07.670Z,13.24
2022-09-26T00:56:15.991Z,13.21
2022-09-26T01:01:18.812Z,13.18
2022-09-26T01:06:21.451Z,13.23
2022-09-26T01:11:23.812Z,13.21
2022-09-26T01:16:25.657Z,13.12
2022-09-26T01:21:37.651Z,13.09
2022-09-26T01:27:07.722Z,13.12
2022-09-26T01:32:48.721Z,13.20
2022-09-26T01:38:09.393Z,13.20
2022-09-26T01:43:34.159Z,13.23
2022-09-26T01:48:44.407Z,13.32
2022-09-26T01:53:53.175Z,13.38
2022-09-26T01:58:56.861Z,13.35
2022-09-26T02:04:06.106Z,13.40
2022-09-26T02:09:12.705Z,13.38
2022-09-26T02:14:25.617Z,13.36
2022-09-26T02:20:02.367Z,13.28
2022-09-26T02:25:05.902Z,13.18
2022-09-26T02:30:08.602Z,13.22
2022-09-26T02:35:34.612Z,13.21
2022-09-26T02:41:02.977Z,13.16
2022-09-26T02:46:30.186Z,13.17
2022-09-26T02:52:08.861Z,13.16
2022-09-26T02:57:39.948Z,13.12
2022-09-26T03:02:50.950Z,13.10
2022-09-26T03:08:05.448Z,13.09
2022-09-26T03:13:13.247Z,13.11
2022-09-26T03:18:20.593Z,13.10
2022-09-26T03:23:26.972Z,13.15
2022-09-26T03:28:37.872Z,13.17
2022-09-26T03:33:40.879Z,13.17
2022-09-26T03:38:42.506Z,13.17
2022-09-26T03:43:58.982Z,13.15
2022-09-26T03:49:13.289Z,13.16
2022-09-26T03:54:15.598Z,13.20
2022-09-26T03:59:17.492Z,13.20
2022-09-26T04:04:20.603Z,13.24
2022-09-26T04:09:23.556Z,13.28
2022-09-26T04:14:26.578Z,13.30
2022-09-26T04:19:31.811Z,13.29
2022-09-26T04:24:35.565Z,13.23
2022-09-26T04:29:37.402Z,13.00
2022-09-26T04:35:02.177Z,12.72
2022-09-26T04:40:04.634Z,12.59
2022-09-26T04:45:09.001Z,12.53
2022-09-26T04:50:10.786Z,12.54
2022-09-26T04:55:13.114Z,12.41
2022-09-26T05:00:15.857Z,12.32
2022-09-26T05:05:17.677Z,12.39
2022-09-26T05:10:19.508Z,12.42
2022-09-26T05:15:29.060Z,12.48
2022-09-26T05:20:31.767Z,12.51
2022-09-26T05:25:59.253Z,12.67
2022-09-26T05:31:01.445Z,12.73
2022-09-26T05:36:05.587Z,12.72
2022-09-26T05:41:07.520Z,12.67
2022-09-26T05:46:11.191Z,12.59
2022-09-26T05:51:21.090Z,12.59
2022-09-26T05:56:23.547Z,12.57
2022-09-26T06:01:38.688Z,12.71
2022-09-26T06:06:52.981Z,12.78
2022-09-26T06:11:54.706Z,12.77
2022-09-26T06:16:56.550Z,12.72
2022-09-26T06:21:58.178Z,12.66
2022-09-26T06:27:00.059Z,12.72
2022-09-26T06:32:01.826Z,12.79
2022-09-26T06:37:32.490Z,12.82
2022-09-26T06:42:38.077Z,12.90
2022-09-26T06:47:54.655Z,12.97
2022-09-26T06:53:10.500Z,13.01
2022-09-26T06:58:12.298Z,12.99
2022-09-26T07:03:29.552Z,12.98
2022-09-26T07:14:41.919Z,12.77
2022-09-26T07:19:53.651Z,12.75
2022-09-26T07:25:21.721Z,12.77
2022-09-26T07:30:23.877Z,12.74
2022-09-26T07:35:44.398Z,12.82
2022-09-26T07:40:46.308Z,12.89
2022-09-26T07:46:09.694Z,13.00
2022-09-26T07:51:12.558Z,13.02
2022-09-26T07:56:23.556Z,12.96
2022-09-26T08:01:38.188Z,13.03
2022-09-26T08:07:06.057Z,13.07
2022-09-26T08:12:14.432Z,13.00
2022-09-26T08:17:34.950Z,13.00
2022-09-26T08:22:37.859Z,13.12
2022-09-26T08:27:43.620Z,13.33
2022-09-26T08:32:54.066Z,13.35
2022-09-26T08:38:00.879Z,13.44
2022-09-26T08:43:42.941Z,13.44
2022-09-26T08:49:39.510Z,13.59
2022-09-26T08:54:44.487Z,13.78
2022-09-26T08:59:47.089Z,13.96
2022-09-26T09:05:10.292Z,14.19
2022-09-26T09:10:22.689Z,14.26
2022-09-26T09:15:46.287Z,14.20
2022-09-26T09:21:13.368Z,14.24
2022-09-26T09:32:31.163Z,14.46
2022-09-26T09:37:52.017Z,14.53
2022-09-26T09:43:13.449Z,14.58
2022-09-26T09:48:15.525Z,14.68
2022-09-26T09:53:32.304Z,14.80
2022-09-26T09:59:04.312Z,15.17
2022-09-26T10:04:37.428Z,15.37
2022-09-26T10:09:41.407Z,15.28
2022-09-26T10:15:07.542Z,15.26
2022-09-26T10:20:39.072Z,15.23
2022-09-26T10:25:48.239Z,15.34
2022-09-26T10:31:01.449Z,15.40
2022-09-26T10:36:31.345Z,15.53
2022-09-26T10:41:39.081Z,15.43
2022-09-26T10:46:45.295Z,15.43
2022-09-26T10:52:18.693Z,15.59
2022-09-26T10:57:33.621Z,15.60
2022-09-26T11:02:38.134Z,15.79
2022-09-26T11:07:43.853Z,15.73
2022-09-26T11:13:18.797Z,15.73
2022-09-26T11:18:33.181Z,15.60
2022-09-26T11:23:39.033Z,15.86
2022-09-26T11:29:08.862Z,15.81
2022-09-26T11:34:28.831Z,15.80
2022-09-26T11:39:59.135Z,15.86
2022-09-26T11:45:09.157Z,15.96
2022-09-26T11:50:51.513Z,16.17
2022-09-26T11:56:19.887Z,16.03
2022-09-26T12:01:55.823Z,15.94
2022-09-26T12:07:08.424Z,16.09
2022-09-26T12:12:41.404Z,15.99
2022-09-26T12:18:04.115Z,15.93
2022-09-26T12:23:46.016Z,15.76
2022-09-26T12:29:06.021Z,15.81
2022-09-26T12:34:18.981Z,16.12
2022-09-26T12:39:41.690Z,16.78
2022-09-26T12:45:02.508Z,17.20
2022-09-26T12:50:30.785Z,17.32
2022-09-26T12:55:56.971Z,17.65
2022-09-26T13:01:29.772Z,17.57
2022-09-26T13:07:18.879Z,17.92
2022-09-26T13:12:47.752Z,18.24
2022-09-26T13:17:57.843Z,17.92
2022-09-26T13:23:18.119Z,17.67
2022-09-26T13:28:24.089Z,17.57
2022-09-26T13:33:28.686Z,17.23
2022-09-26T13:38:53.165Z,16.77
2022-09-26T13:44:06.765Z,16.43
2022-09-26T13:49:33.800Z,16.23
2022-09-26T13:54:54.126Z,16.13
2022-09-26T13:59:55.772Z,16.22
2022-09-26T14:05:03.592Z,16.61
2022-09-26T14:10:17.941Z,17.03
2022-09-26T14:15:48.074Z,17.37
2022-09-26T14:21:05.478Z,17.58
2022-09-26T14:26:21.573Z,17.85
2022-09-26T14:31:26.286Z,17.73
2022-09-26T14:36:32.478Z,17.92
2022-09-26T14:41:36.430Z,18.20
2022-09-26T14:46:41.336Z,18.36
2022-09-26T14:51:48.982Z,18.33
2022-09-26T14:57:02.151Z,18.29
2022-09-26T15:02:26.026Z,18.46
2022-09-26T15:07:33.737Z,18.57
2022-09-26T15:12:48.019Z,18.64
2022-09-26T15:17:55.822Z,18.13
2022-09-26T15:22:58.867Z,17.72
2022-09-26T15:28:01.506Z,17.85
2022-09-26T15:33:04.194Z,17.93
2022-09-26T15:38:12.935Z,17.71
2022-09-26T15:43:21.785Z,17.46
2022-09-26T15:48:32.579Z,17.40
2022-09-26T15:53:39.774Z,17.65
2022-09-26T15:58:53.352Z,17.55
2022-09-26T16:03:58.728Z,17.37
2022-09-26T16:09:05.969Z,17.31
2022-09-26T16:14:23.148Z,17.24
2022-09-26T16:19:43.180Z,17.20
2022-09-26T16:24:44.870Z,17.09
2022-09-26T16:29:51.815Z,16.86
2022-09-26T16:34:53.499Z,16.39
2022-09-26T16:39:59.336Z,15.97
2022-09-26T16:45:04.828Z,15.63
2022-09-26T16:50:33.562Z,15.41
2022-09-26T16:55:36.308Z,15.21
2022-09-26T17:00:58.853Z,14.86
2022-09-26T17:06:00.598Z,14.65
2022-09-26T17:11:04.243Z,14.30
2022-09-26T17:16:07.358Z,14.09
2022-09-26T17:21:09.061Z,14.06
2022-09-26T17:26:23.926Z,13.83
2022-09-26T17:31:26.945Z,13.62
2022-09-26T17:36:29.615Z,13.27
2022-09-26T17:41:34.356Z,12.95
2022-09-26T17:46:38.349Z,12.86
2022-09-26T17:51:40.646Z,13.00
2022-09-26T17:56:42.382Z,13.05
2022-09-26T18:01:46.447Z,13.13
2022-09-26T18:06:48.106Z,13.05
2022-09-26T18:11:59.612Z,12.99
2022-09-26T18:17:02.085Z,12.83
2022-09-26T18:22:03.963Z,12.75
2022-09-26T18:27:07.283Z,12.61
2022-09-26T18:32:25.792Z,12.52
2022-09-26T18:37:27.495Z,12.55
2022-09-26T18:42:29.134Z,12.51
2022-09-26T18:47:45.080Z,12.64
2022-09-26T18:52:46.771Z,12.67
2022-09-26T18:58:06.950Z,12.67
2022-09-26T19:03:08.717Z,12.77
2022-09-26T19:08:28.118Z,12.81
2022-09-26T19:13:31.498Z,12.78
2022-09-26T19:18:33.525Z,13.04
2022-09-26T19:23:36.660Z,13.26
2022-09-26T19:28:38.814Z,13.43
2022-09-26T19:33:45.419Z,13.54
2022-09-26T19:38:47.125Z,13.63
2022-09-26T19:43:48.818Z,13.66
2022-09-26T19:48:50.549Z,13.71
2022-09-26T19:53:52.301Z,13.72
2022-09-26T19:58:54.084Z,13.76
2022-09-26T20:03:55.830Z,13.83
2022-09-26T20:09:02.167Z,13.82
2022-09-26T20:14:22.704Z,13.80
2022-09-26T20:19:30.400Z,13.81
2022-09-26T20:24:33.429Z,13.84
2022-09-26T20:29:56.633Z,13.83
2022-09-26T20:35:00.393Z,13.82
2022-09-26T20:40:22.639Z,13.84
2022-09-26T20:45:31.822Z,13.82
2022-09-26T20:50:37.020Z,13.76
2022-09-26T20:55:43.239Z,13.74
2022-09-26T21:00:46.104Z,13.73
2022-09-26T21:05:47.848Z,13.64
2022-09-26T21:10:49.693Z,13.61
2022-09-26T21:15:52.813Z,13.56
2022-09-26T21:20:59.358Z,13.58
2022-09-26T21:26:25.050Z,13.63
2022-09-26T21:31:32.259Z,13.65
2022-09-26T21:36:39.319Z,13.67
2022-09-26T21:41:41.095Z,13.61
2022-09-26T21:46:42.716Z,13.55
2022-09-26T21:51:49.632Z,13.53
2022-09-26T21:56:55.710Z,13.53
2022-09-26T22:01:57.560Z,13.52
2022-09-26T22:06:59.340Z,13.56
2022-09-26T22:12:01.491Z,13.55
2022-09-26T22:17:03.124Z,13.54
2022-09-26T22:22:04.832Z,13.56
2022-09-26T22:27:06.508Z,13.60
2022-09-26T22:32:08.595Z,13.60
2022-09-26T22:37:10.225Z,13.60
2022-09-26T22:42:12.134Z,13.56
2022-09-26T22:47:13.835Z,13.58
2022-09-26T22:52:15.474Z,13.55
2022-09-26T22:57:17.482Z,13.55
2022-09-26T23:02:19.216Z,13.56
2022-09-26T23:07:21.129Z,13.54
2022-09-26T23:12:23.136Z,13.54
2022-09-26T23:17:25.080Z,13.56
2022-09-26T23:22:26.698Z,13.63
2022-09-26T23:27:28.523Z,13.69
2022-09-26T23:32:30.233Z,13.69
2022-09-26T23:37:32.498Z,13.72
2022-09-26T23:42:34.281Z,13.74
2022-09-26T23:47:35.949Z,13.71
2022-09-26T23:52:37.734Z,13.70
2022-09-26T23:57:39.512Z,13.61
